PWSweather.com
Personal Weather Stations
Station Observations
WXGLH1124
Southern Oaks, Indianapolis, IN 46217

Southern OaksIndianapolis, IN 46217

Lat: 39.65113, Lon: -86.16866

Elevation: 720

Station Type: Vantage Pro2

Latest ConditionsUpdated 9:40:00 PM EST Saturday, Dec 15, 2018
Currently Today's Max Today's Min Today's Average
Temperature 40.0°F4.4°C 45.9°F7.7°C 39.9°F4.4°C 43.8°F6.6°C
Dew Point 37.6°F3.1°C 43.2°F6.2°C 37.2°F2.9°C 40.7°F4.8°C
Winds 8.0 mph N12.9 kmh N 14.0 mph -22.5 kmh - - 4.8 mph 7.7 kmh
Wind Gusts 11.0 mph17.7 kmh 17.0 mph27.4 kmh - -
Humidity 91% 92% 85% 89%
Pressure 30.01 in1016.3 mb 30.09 in1019.0 mb 29.96 in1014.6 mb -
Hour Temp Dew Point Humidity Winds Wind Gusts Pressure Precip Precip Rate Daily Precip Total
09:40 PM 40.0°F4.4°C 37.6°F3.1°C 91% 8.0 mph N12.9 kmh N 11.0 mph17.7 kmh 30.01 in1016.3 mb 0.02 in0.5 mm 0.00 in0.0 mm 0.15 in3.8 mm
09:35 PM 39.9°F4.4°C 37.5°F3.1°C 91% 3.0 mph NNE4.8 kmh NNE 7.0 mph11.3 kmh 30.01 in1016.3 mb 0.02 in0.5 mm 0.00 in0.0 mm 0.15 in3.8 mm
09:29 PM 40.0°F4.4°C 37.6°F3.1°C 91% 5.0 mph NE8.0 kmh NE 10.0 mph16.1 kmh 30.01 in1016.3 mb 0.02 in0.5 mm 0.15 in3.8 mm 0.15 in3.8 mm
09:25 PM 40.0°F4.4°C 37.6°F3.1°C 91% 8.0 mph NNE12.9 kmh NNE 9.0 mph14.5 kmh 30.01 in1016.3 mb 0.01 in0.3 mm 0.00 in0.0 mm 0.14 in3.6 mm
09:20 PM 40.0°F4.4°C 37.6°F3.1°C 91% 2.0 mph NNE3.2 kmh NNE 6.0 mph9.7 kmh 30.01 in1016.3 mb 0.01 in0.3 mm 0.00 in0.0 mm 0.14 in3.6 mm
09:15 PM 40.0°F4.4°C 37.6°F3.1°C 91% 8.0 mph NNE12.9 kmh NNE 8.0 mph12.9 kmh 30.00 in1015.9 mb 0.01 in0.3 mm 0.00 in0.0 mm 0.14 in3.6 mm
09:10 PM 40.0°F4.4°C 37.6°F3.1°C 91% 2.0 mph N3.2 kmh N 8.0 mph12.9 kmh 30.01 in1016.3 mb 0.01 in0.3 mm 0.00 in0.0 mm 0.14 in3.6 mm
09:05 PM 40.0°F4.4°C 37.6°F3.1°C 91% 2.0 mph N3.2 kmh N 9.0 mph14.5 kmh 30.00 in1015.9 mb 0.01 in0.3 mm 0.00 in0.0 mm 0.14 in3.6 mm
09:00 PM 40.1°F4.5°C 37.4°F3.0°C 90% 2.0 mph NNE3.2 kmh NNE 10.0 mph16.1 kmh 30.01 in1016.3 mb 0.01 in0.3 mm 0.00 in0.0 mm 0.14 in3.6 mm
08:55 PM 40.2°F4.6°C 37.5°F3.1°C 90% 5.0 mph NE8.0 kmh NE 8.0 mph12.9 kmh 30.00 in1015.9 mb 0.01 in0.3 mm 0.00 in0.0 mm 0.14 in3.6 mm
08:50 PM 40.3°F4.6°C 37.3°F2.9°C 89% 6.0 mph NNE9.7 kmh NNE 10.0 mph16.1 kmh 30.00 in1015.9 mb 0.01 in0.3 mm 0.00 in0.0 mm 0.14 in3.6 mm
08:45 PM 40.5°F4.7°C 37.5°F3.1°C 89% 3.0 mph NNE4.8 kmh NNE 10.0 mph16.1 kmh 30.01 in1016.3 mb 0.02 in0.5 mm 0.12 in3.0 mm 0.14 in3.6 mm
08:40 PM 40.6°F4.8°C 37.3°F2.9°C 88% 3.0 mph NE4.8 kmh NE 9.0 mph14.5 kmh 30.01 in1016.3 mb 0.01 in0.3 mm 0.00 in0.0 mm 0.13 in3.3 mm
08:35 PM 40.9°F4.9°C 37.6°F3.1°C 88% 5.0 mph NNE8.0 kmh NNE 6.0 mph9.7 kmh 30.00 in1015.9 mb 0.01 in0.3 mm 0.00 in0.0 mm 0.13 in3.3 mm
08:30 PM 41.1°F5.1°C 37.5°F3.1°C 87% 3.0 mph NE4.8 kmh NE 9.0 mph14.5 kmh 30.00 in1015.9 mb 0.01 in0.3 mm 0.00 in0.0 mm 0.13 in3.3 mm
08:25 PM 41.1°F5.1°C 37.5°F3.1°C 87% 2.0 mph E3.2 kmh E 10.0 mph16.1 kmh 30.00 in1015.9 mb 0.01 in0.3 mm 0.00 in0.0 mm 0.13 in3.3 mm
08:20 PM 41.1°F5.1°C 37.5°F3.1°C 87% 2.0 mph N3.2 kmh N 10.0 mph16.1 kmh 29.99 in1015.6 mb 0.01 in0.3 mm 0.00 in0.0 mm 0.13 in3.3 mm
08:14 PM 41.0°F5.0°C 37.7°F3.2°C 88% 5.0 mph NNE8.0 kmh NNE 10.0 mph16.1 kmh 29.98 in1015.2 mb 0.01 in0.3 mm 0.00 in0.0 mm 0.13 in3.3 mm
08:10 PM 40.9°F4.9°C 37.6°F3.1°C 88% 6.0 mph NNW9.7 kmh NNW 10.0 mph16.1 kmh 29.99 in1015.6 mb 0.01 in0.3 mm 0.00 in0.0 mm 0.13 in3.3 mm
08:05 PM 40.9°F4.9°C 37.6°F3.1°C 88% 5.0 mph NNW8.0 kmh NNW 13.0 mph20.9 kmh 29.99 in1015.6 mb 0.01 in0.3 mm 0.00 in0.0 mm 0.13 in3.3 mm
08:00 PM 40.9°F4.9°C 37.6°F3.1°C 88% 5.0 mph N8.0 kmh N 11.0 mph17.7 kmh 29.98 in1015.2 mb 0.01 in0.3 mm 0.00 in0.0 mm 0.13 in3.3 mm
07:54 PM 41.0°F5.0°C 37.7°F3.2°C 88% 4.0 mph N6.4 kmh N 8.0 mph12.9 kmh 29.98 in1015.2 mb 0.02 in0.5 mm 0.00 in0.0 mm 0.13 in3.3 mm
07:50 PM 40.9°F4.9°C 37.6°F3.1°C 88% 9.0 mph NNE14.5 kmh NNE 13.0 mph20.9 kmh 29.98 in1015.2 mb 0.02 in0.5 mm 0.00 in0.0 mm 0.13 in3.3 mm
07:45 PM 40.9°F4.9°C 37.3°F2.9°C 87% 8.0 mph N12.9 kmh N 15.0 mph24.1 kmh 29.98 in1015.2 mb 0.02 in0.5 mm 0.12 in3.0 mm 0.13 in3.3 mm
07:40 PM 40.8°F4.9°C 37.2°F2.9°C 87% 10.0 mph NW16.1 kmh NW 11.0 mph17.7 kmh 29.98 in1015.2 mb 0.01 in0.3 mm 0.00 in0.0 mm 0.12 in3.0 mm
07:35 PM 40.9°F4.9°C 37.3°F2.9°C 87% 10.0 mph N16.1 kmh N 14.0 mph22.5 kmh 29.98 in1015.2 mb 0.01 in0.3 mm 0.00 in0.0 mm 0.12 in3.0 mm
07:30 PM 40.9°F4.9°C 37.3°F2.9°C 87% 8.0 mph N12.9 kmh N 11.0 mph17.7 kmh 29.98 in1015.2 mb 0.01 in0.3 mm 0.00 in0.0 mm 0.12 in3.0 mm
07:25 PM 41.1°F5.1°C 37.5°F3.1°C 87% 8.0 mph N12.9 kmh N 12.0 mph19.3 kmh 29.98 in1015.2 mb 0.01 in0.3 mm 0.00 in0.0 mm 0.12 in3.0 mm
07:20 PM 41.3°F5.2°C 37.7°F3.2°C 87% 5.0 mph N8.0 kmh N 12.0 mph19.3 kmh 29.98 in1015.2 mb 0.01 in0.3 mm 0.00 in0.0 mm 0.12 in3.0 mm
07:14 PM 41.4°F5.2°C 37.8°F3.2°C 87% 5.0 mph NNE8.0 kmh NNE 13.0 mph20.9 kmh 29.99 in1015.6 mb 0.01 in0.3 mm 0.00 in0.0 mm 0.12 in3.0 mm
07:10 PM 41.5°F5.3°C 37.9°F3.3°C 87% 9.0 mph NNE14.5 kmh NNE 12.0 mph19.3 kmh 29.99 in1015.6 mb 0.01 in0.3 mm 0.00 in0.0 mm 0.12 in3.0 mm
07:05 PM 41.7°F5.4°C 37.8°F3.2°C 86% 6.0 mph NE9.7 kmh NE 13.0 mph20.9 kmh 29.99 in1015.6 mb 0.02 in0.5 mm 0.00 in0.0 mm 0.12 in3.0 mm
07:00 PM 41.8°F5.4°C 38.2°F3.4°C 87% 7.0 mph NNE11.3 kmh NNE 11.0 mph17.7 kmh 30.00 in1015.9 mb 0.02 in0.5 mm 0.00 in0.0 mm 0.12 in3.0 mm
06:54 PM 42.0°F5.6°C 38.1°F3.4°C 86% 5.0 mph N8.0 kmh N 15.0 mph24.1 kmh 29.99 in1015.6 mb 0.02 in0.5 mm 0.12 in3.0 mm 0.12 in3.0 mm
06:49 PM 42.2°F5.7°C 38.3°F3.5°C 86% 9.0 mph NE14.5 kmh NE 17.0 mph27.4 kmh 30.00 in1015.9 mb 0.01 in0.3 mm 0.00 in0.0 mm 0.11 in2.8 mm
06:45 PM 42.4°F5.8°C 38.8°F3.8°C 87% 7.0 mph N11.3 kmh N 12.0 mph19.3 kmh 30.00 in1015.9 mb 0.01 in0.3 mm 0.00 in0.0 mm 0.11 in2.8 mm
06:40 PM 42.6°F5.9°C 39.0°F3.9°C 87% 5.0 mph N8.0 kmh N 9.0 mph14.5 kmh 30.00 in1015.9 mb 0.01 in0.3 mm 0.00 in0.0 mm 0.11 in2.8 mm
06:35 PM 42.6°F5.9°C 38.7°F3.7°C 86% 8.0 mph NNW12.9 kmh NNW 11.0 mph17.7 kmh 29.99 in1015.6 mb 0.01 in0.3 mm 0.00 in0.0 mm 0.11 in2.8 mm
06:30 PM 42.7°F5.9°C 39.1°F3.9°C 87% 6.0 mph NE9.7 kmh NE 9.0 mph14.5 kmh 30.00 in1015.9 mb 0.01 in0.3 mm 0.00 in0.0 mm 0.11 in2.8 mm
06:25 PM 42.8°F6.0°C 39.2°F4.0°C 87% 3.0 mph NNE4.8 kmh NNE 11.0 mph17.7 kmh 30.00 in1015.9 mb 0.02 in0.5 mm 0.00 in0.0 mm 0.11 in2.8 mm
06:20 PM 42.8°F6.0°C 39.2°F4.0°C 87% 5.0 mph N8.0 kmh N 8.0 mph12.9 kmh 30.00 in1015.9 mb 0.02 in0.5 mm 0.00 in0.0 mm 0.11 in2.8 mm
06:15 PM 42.8°F6.0°C 39.2°F4.0°C 87% 6.0 mph NNW9.7 kmh NNW 10.0 mph16.1 kmh 30.00 in1015.9 mb 0.02 in0.5 mm 0.00 in0.0 mm 0.11 in2.8 mm
06:10 PM 42.8°F6.0°C 39.2°F4.0°C 87% 10.0 mph N16.1 kmh N 10.0 mph16.1 kmh 30.00 in1015.9 mb 0.02 in0.5 mm 0.10 in2.5 mm 0.11 in2.8 mm
06:04 PM 42.9°F6.1°C 39.3°F4.1°C 87% 5.0 mph NNE8.0 kmh NNE 9.0 mph14.5 kmh 30.00 in1015.9 mb 0.01 in0.3 mm 0.00 in0.0 mm 0.10 in2.5 mm
06:00 PM 43.0°F6.1°C 39.4°F4.1°C 87% 5.0 mph NNE8.0 kmh NNE 10.0 mph16.1 kmh 29.99 in1015.6 mb 0.01 in0.3 mm 0.00 in0.0 mm 0.10 in2.5 mm
05:55 PM 43.1°F6.2°C 39.5°F4.2°C 87% 2.0 mph N3.2 kmh N 13.0 mph20.9 kmh 29.99 in1015.6 mb 0.01 in0.3 mm 0.00 in0.0 mm 0.10 in2.5 mm
05:50 PM 43.1°F6.2°C 39.5°F4.2°C 87% 4.0 mph N6.4 kmh N 10.0 mph16.1 kmh 29.99 in1015.6 mb 0.01 in0.3 mm 0.00 in0.0 mm 0.10 in2.5 mm
05:45 PM 43.2°F6.2°C 39.6°F4.2°C 87% 10.0 mph ENE16.1 kmh ENE 10.0 mph16.1 kmh 29.99 in1015.6 mb 0.01 in0.3 mm 0.00 in0.0 mm 0.10 in2.5 mm
05:40 PM 43.2°F6.2°C 39.6°F4.2°C 87% 6.0 mph N9.7 kmh N 11.0 mph17.7 kmh 29.99 in1015.6 mb 0.02 in0.5 mm 0.00 in0.0 mm 0.10 in2.5 mm
05:34 PM 43.2°F6.2°C 39.6°F4.2°C 87% 11.0 mph NNE17.7 kmh NNE 12.0 mph19.3 kmh 29.99 in1015.6 mb 0.02 in0.5 mm 0.00 in0.0 mm 0.10 in2.5 mm
05:30 PM 43.3°F6.3°C 39.7°F4.3°C 87% 5.0 mph N8.0 kmh N 11.0 mph17.7 kmh 29.99 in1015.6 mb 0.02 in0.5 mm 0.00 in0.0 mm 0.10 in2.5 mm
05:25 PM 43.2°F6.2°C 39.6°F4.2°C 87% 5.0 mph NNE8.0 kmh NNE 11.0 mph17.7 kmh 29.99 in1015.6 mb 0.02 in0.5 mm 0.10 in2.5 mm 0.10 in2.5 mm
05:19 PM 43.3°F6.3°C 39.7°F4.3°C 87% 4.0 mph NNE6.4 kmh NNE 11.0 mph17.7 kmh 29.99 in1015.6 mb 0.01 in0.3 mm 0.00 in0.0 mm 0.09 in2.3 mm
05:14 PM 43.3°F6.3°C 39.7°F4.3°C 87% 2.0 mph NNW3.2 kmh NNW 8.0 mph12.9 kmh 29.99 in1015.6 mb 0.01 in0.3 mm 0.00 in0.0 mm 0.09 in2.3 mm
05:10 PM 43.3°F6.3°C 39.4°F4.1°C 86% 3.0 mph NNE4.8 kmh NNE 9.0 mph14.5 kmh 29.98 in1015.2 mb 0.01 in0.3 mm 0.00 in0.0 mm 0.09 in2.3 mm
05:04 PM 43.3°F6.3°C 39.4°F4.1°C 86% 3.0 mph NNE4.8 kmh NNE 9.0 mph14.5 kmh 29.98 in1015.2 mb 0.01 in0.3 mm 0.00 in0.0 mm 0.09 in2.3 mm
05:00 PM 43.4°F6.3°C 39.5°F4.2°C 86% 4.0 mph N6.4 kmh N 8.0 mph12.9 kmh 29.98 in1015.2 mb 0.02 in0.5 mm 0.00 in0.0 mm 0.09 in2.3 mm
04:55 PM 43.4°F6.3°C 39.5°F4.2°C 86% 4.0 mph N6.4 kmh N 10.0 mph16.1 kmh 29.98 in1015.2 mb 0.02 in0.5 mm 0.00 in0.0 mm 0.09 in2.3 mm
04:49 PM 43.5°F6.4°C 39.6°F4.2°C 86% 2.0 mph NNE3.2 kmh NNE 7.0 mph11.3 kmh 29.98 in1015.2 mb 0.02 in0.5 mm 0.00 in0.0 mm 0.09 in2.3 mm
04:45 PM 43.6°F6.4°C 39.7°F4.3°C 86% 5.0 mph NNE8.0 kmh NNE 10.0 mph16.1 kmh 29.97 in1014.9 mb 0.02 in0.5 mm 0.12 in3.0 mm 0.09 in2.3 mm
04:40 PM 43.6°F6.4°C 39.7°F4.3°C 86% 4.0 mph NE6.4 kmh NE 11.0 mph17.7 kmh 29.97 in1014.9 mb 0.01 in0.3 mm 0.00 in0.0 mm 0.08 in2.0 mm
04:35 PM 43.6°F6.4°C 39.4°F4.1°C 85% 3.0 mph NNE4.8 kmh NNE 9.0 mph14.5 kmh 29.97 in1014.9 mb 0.01 in0.3 mm 0.00 in0.0 mm 0.08 in2.0 mm
04:30 PM 43.6°F6.4°C 39.4°F4.1°C 85% 2.0 mph NE3.2 kmh NE 9.0 mph14.5 kmh 29.97 in1014.9 mb 0.01 in0.3 mm 0.00 in0.0 mm 0.08 in2.0 mm
04:25 PM 43.6°F6.4°C 39.7°F4.3°C 86% 4.0 mph NNE6.4 kmh NNE 8.0 mph12.9 kmh 29.97 in1014.9 mb 0.02 in0.5 mm 0.00 in0.0 mm 0.08 in2.0 mm
04:20 PM 43.7°F6.5°C 39.8°F4.3°C 86% 3.0 mph NE4.8 kmh NE 9.0 mph14.5 kmh 29.97 in1014.9 mb 0.02 in0.5 mm 0.00 in0.0 mm 0.08 in2.0 mm
04:15 PM 43.8°F6.6°C 39.9°F4.4°C 86% 5.0 mph N8.0 kmh N 9.0 mph14.5 kmh 29.97 in1014.9 mb 0.02 in0.5 mm 0.00 in0.0 mm 0.08 in2.0 mm
04:10 PM 44.0°F6.7°C 40.1°F4.5°C 86% 3.0 mph NNE4.8 kmh NNE 8.0 mph12.9 kmh 29.97 in1014.9 mb 0.02 in0.5 mm 0.00 in0.0 mm 0.08 in2.0 mm
04:05 PM 44.0°F6.7°C 40.1°F4.5°C 86% 4.0 mph NNE6.4 kmh NNE 8.0 mph12.9 kmh 29.97 in1014.9 mb 0.02 in0.5 mm 0.12 in3.0 mm 0.08 in2.0 mm
04:00 PM 44.0°F6.7°C 40.1°F4.5°C 86% 4.0 mph NE6.4 kmh NE 12.0 mph19.3 kmh 29.96 in1014.6 mb 0.01 in0.3 mm 0.00 in0.0 mm 0.07 in1.8 mm
03:55 PM 44.0°F6.7°C 40.4°F4.7°C 87% 4.0 mph N6.4 kmh N 10.0 mph16.1 kmh 29.97 in1014.9 mb 0.01 in0.3 mm 0.00 in0.0 mm 0.07 in1.8 mm
03:50 PM 44.0°F6.7°C 40.4°F4.7°C 87% 5.0 mph N8.0 kmh N 8.0 mph12.9 kmh 29.97 in1014.9 mb 0.02 in0.5 mm 0.00 in0.0 mm 0.07 in1.8 mm
03:45 PM 44.0°F6.7°C 40.4°F4.7°C 87% 4.0 mph NE6.4 kmh NE 11.0 mph17.7 kmh 29.97 in1014.9 mb 0.02 in0.5 mm 0.00 in0.0 mm 0.07 in1.8 mm
03:40 PM 44.0°F6.7°C 40.7°F4.8°C 88% 3.0 mph NNE4.8 kmh NNE 9.0 mph14.5 kmh 29.97 in1014.9 mb 0.02 in0.5 mm 0.00 in0.0 mm 0.07 in1.8 mm
03:35 PM 44.0°F6.7°C 40.7°F4.8°C 88% 5.0 mph N8.0 kmh N 5.0 mph8.0 kmh 29.97 in1014.9 mb 0.02 in0.5 mm 0.00 in0.0 mm 0.07 in1.8 mm
03:30 PM 44.0°F6.7°C 40.4°F4.7°C 87% 7.0 mph NE11.3 kmh NE 10.0 mph16.1 kmh 29.96 in1014.6 mb 0.02 in0.5 mm 0.00 in0.0 mm 0.07 in1.8 mm
03:25 PM 43.9°F6.6°C 40.3°F4.6°C 87% 9.0 mph NE14.5 kmh NE 11.0 mph17.7 kmh 29.96 in1014.6 mb 0.02 in0.5 mm 0.12 in3.0 mm 0.07 in1.8 mm
03:20 PM 43.8°F6.6°C 40.5°F4.7°C 88% 4.0 mph ENE6.4 kmh ENE 10.0 mph16.1 kmh 29.96 in1014.6 mb 0.01 in0.3 mm 0.00 in0.0 mm 0.06 in1.5 mm
03:15 PM 43.7°F6.5°C 40.4°F4.7°C 88% 3.0 mph E4.8 kmh E 11.0 mph17.7 kmh 29.96 in1014.6 mb 0.02 in0.5 mm 0.00 in0.0 mm 0.06 in1.5 mm
03:10 PM 43.6°F6.4°C 40.3°F4.6°C 88% 5.0 mph N8.0 kmh N 11.0 mph17.7 kmh 29.96 in1014.6 mb 0.02 in0.5 mm 0.00 in0.0 mm 0.06 in1.5 mm
03:05 PM 43.5°F6.4°C 40.2°F4.6°C 88% 7.0 mph ENE11.3 kmh ENE 10.0 mph16.1 kmh 29.96 in1014.6 mb 0.02 in0.5 mm 0.00 in0.0 mm 0.06 in1.5 mm
03:00 PM 43.4°F6.3°C 40.1°F4.5°C 88% 5.0 mph NE8.0 kmh NE 7.0 mph11.3 kmh 29.97 in1014.9 mb 0.02 in0.5 mm 0.00 in0.0 mm 0.06 in1.5 mm
02:55 PM 43.3°F6.3°C 40.0°F4.4°C 88% 2.0 mph NE3.2 kmh NE 8.0 mph12.9 kmh 29.96 in1014.6 mb 0.02 in0.5 mm 0.00 in0.0 mm 0.06 in1.5 mm
02:50 PM 43.3°F6.3°C 40.0°F4.4°C 88% 4.0 mph NNE6.4 kmh NNE 8.0 mph12.9 kmh 29.96 in1014.6 mb 0.02 in0.5 mm 0.00 in0.0 mm 0.06 in1.5 mm
02:44 PM 43.2°F6.2°C 39.9°F4.4°C 88% 4.0 mph ENE6.4 kmh ENE 7.0 mph11.3 kmh 29.97 in1014.9 mb 0.02 in0.5 mm 0.00 in0.0 mm 0.06 in1.5 mm
02:40 PM 43.1°F6.2°C 39.8°F4.3°C 88% 6.0 mph NNE9.7 kmh NNE 9.0 mph14.5 kmh 29.96 in1014.6 mb 0.02 in0.5 mm 0.00 in0.0 mm 0.06 in1.5 mm
02:35 PM 43.1°F6.2°C 39.8°F4.3°C 88% 2.0 mph NE3.2 kmh NE 8.0 mph12.9 kmh 29.96 in1014.6 mb 0.02 in0.5 mm 0.00 in0.0 mm 0.06 in1.5 mm
02:30 PM 43.1°F6.2°C 39.8°F4.3°C 88% 4.0 mph NNE6.4 kmh NNE 8.0 mph12.9 kmh 29.97 in1014.9 mb 0.02 in0.5 mm 0.00 in0.0 mm 0.06 in1.5 mm
02:25 PM 43.1°F6.2°C 39.8°F4.3°C 88% 2.0 mph NE3.2 kmh NE 10.0 mph16.1 kmh 29.96 in1014.6 mb 0.02 in0.5 mm 0.00 in0.0 mm 0.06 in1.5 mm
02:20 PM 43.0°F6.1°C 39.7°F4.3°C 88% 8.0 mph NE12.9 kmh NE 10.0 mph16.1 kmh 29.96 in1014.6 mb 0.02 in0.5 mm 0.00 in0.0 mm 0.06 in1.5 mm
02:15 PM 42.9°F6.1°C 39.9°F4.4°C 89% 8.0 mph N12.9 kmh N 10.0 mph16.1 kmh 29.97 in1014.9 mb 0.02 in0.5 mm 0.00 in0.0 mm 0.06 in1.5 mm
02:10 PM 42.9°F6.1°C 39.9°F4.4°C 89% 8.0 mph N12.9 kmh N 11.0 mph17.7 kmh 29.97 in1014.9 mb 0.02 in0.5 mm 0.00 in0.0 mm 0.06 in1.5 mm
02:05 PM 42.8°F6.0°C 39.8°F4.3°C 89% 3.0 mph NE4.8 kmh NE 12.0 mph19.3 kmh 29.97 in1014.9 mb 0.02 in0.5 mm 0.00 in0.0 mm 0.06 in1.5 mm
02:00 PM 42.9°F6.1°C 39.9°F4.4°C 89% 10.0 mph NNE16.1 kmh NNE 12.0 mph19.3 kmh 29.97 in1014.9 mb 0.02 in0.5 mm 0.00 in0.0 mm 0.06 in1.5 mm
01:55 PM 42.8°F6.0°C 40.1°F4.5°C 90% 7.0 mph NE11.3 kmh NE 11.0 mph17.7 kmh 29.97 in1014.9 mb 0.02 in0.5 mm 0.00 in0.0 mm 0.06 in1.5 mm
01:50 PM 42.6°F5.9°C 39.9°F4.4°C 90% 9.0 mph NE14.5 kmh NE 10.0 mph16.1 kmh 29.97 in1014.9 mb 0.02 in0.5 mm 0.00 in0.0 mm 0.06 in1.5 mm
01:45 PM 42.5°F5.8°C 40.1°F4.5°C 91% 4.0 mph NNE6.4 kmh NNE 9.0 mph14.5 kmh 29.97 in1014.9 mb 0.02 in0.5 mm 0.12 in3.0 mm 0.06 in1.5 mm
01:40 PM 42.3°F5.7°C 39.9°F4.4°C 91% 4.0 mph E6.4 kmh E 11.0 mph17.7 kmh 29.97 in1014.9 mb 0.01 in0.3 mm 0.00 in0.0 mm 0.05 in1.3 mm
01:35 PM 42.1°F5.6°C 39.7°F4.3°C 91% 3.0 mph N4.8 kmh N 10.0 mph16.1 kmh 29.98 in1015.2 mb 0.02 in0.5 mm 0.00 in0.0 mm 0.05 in1.3 mm
01:30 PM 42.0°F5.6°C 39.6°F4.2°C 91% 4.0 mph NE6.4 kmh NE 14.0 mph22.5 kmh 29.98 in1015.2 mb 0.02 in0.5 mm 0.00 in0.0 mm 0.05 in1.3 mm
01:25 PM 41.9°F5.5°C 39.5°F4.2°C 91% 4.0 mph NNE6.4 kmh NNE 11.0 mph17.7 kmh 29.98 in1015.2 mb 0.02 in0.5 mm 0.00 in0.0 mm 0.05 in1.3 mm
01:19 PM 41.9°F5.5°C 39.5°F4.2°C 91% 3.0 mph NE4.8 kmh NE 9.0 mph14.5 kmh 29.98 in1015.2 mb 0.02 in0.5 mm 0.00 in0.0 mm 0.05 in1.3 mm
01:15 PM 41.8°F5.4°C 39.4°F4.1°C 91% 6.0 mph NE9.7 kmh NE 12.0 mph19.3 kmh 29.98 in1015.2 mb 0.02 in0.5 mm 0.00 in0.0 mm 0.05 in1.3 mm
01:10 PM 41.8°F5.4°C 39.4°F4.1°C 91% 8.0 mph N12.9 kmh N 13.0 mph20.9 kmh 29.98 in1015.2 mb 0.02 in0.5 mm 0.12 in3.0 mm 0.05 in1.3 mm
01:05 PM 41.8°F5.4°C 39.4°F4.1°C 91% 6.0 mph ENE9.7 kmh ENE 10.0 mph16.1 kmh 29.98 in1015.2 mb 0.01 in0.3 mm 0.00 in0.0 mm 0.04 in1.0 mm
01:00 PM 41.9°F5.5°C 39.5°F4.2°C 91% 8.0 mph NNE12.9 kmh NNE 13.0 mph20.9 kmh 29.99 in1015.6 mb 0.01 in0.3 mm 0.00 in0.0 mm 0.04 in1.0 mm
12:55 PM 41.9°F5.5°C 39.5°F4.2°C 91% 2.0 mph NNE3.2 kmh NNE 12.0 mph19.3 kmh 29.99 in1015.6 mb 0.02 in0.5 mm 0.00 in0.0 mm 0.04 in1.0 mm
12:50 PM 41.9°F5.5°C 39.5°F4.2°C 91% 7.0 mph N11.3 kmh N 11.0 mph17.7 kmh 29.99 in1015.6 mb 0.02 in0.5 mm 0.00 in0.0 mm 0.04 in1.0 mm
12:45 PM 41.9°F5.5°C 39.5°F4.2°C 91% 10.0 mph NE16.1 kmh NE 14.0 mph22.5 kmh 29.99 in1015.6 mb 0.02 in0.5 mm 0.00 in0.0 mm 0.04 in1.0 mm
12:40 PM 41.9°F5.5°C 39.2°F4.0°C 90% 11.0 mph NNE17.7 kmh NNE 13.0 mph20.9 kmh 29.99 in1015.6 mb 0.02 in0.5 mm 0.12 in3.0 mm 0.04 in1.0 mm
12:35 PM 42.1°F5.6°C 39.7°F4.3°C 91% 13.0 mph NE20.9 kmh NE 16.0 mph25.7 kmh 30.00 in1015.9 mb 0.01 in0.3 mm 0.00 in0.0 mm 0.03 in0.8 mm
12:30 PM 42.3°F5.7°C 39.9°F4.4°C 91% 3.0 mph NNE4.8 kmh NNE 10.0 mph16.1 kmh 30.00 in1015.9 mb 0.01 in0.3 mm 0.00 in0.0 mm 0.03 in0.8 mm
12:25 PM 42.4°F5.8°C 40.0°F4.4°C 91% 9.0 mph N14.5 kmh N 13.0 mph20.9 kmh 30.00 in1015.9 mb 0.01 in0.3 mm 0.00 in0.0 mm 0.03 in0.8 mm
12:20 PM 42.4°F5.8°C 40.0°F4.4°C 91% 9.0 mph NNE14.5 kmh NNE 13.0 mph20.9 kmh 30.00 in1015.9 mb 0.01 in0.3 mm 0.00 in0.0 mm 0.03 in0.8 mm
12:15 PM 42.5°F5.8°C 40.1°F4.5°C 91% 3.0 mph NE4.8 kmh NE 10.0 mph16.1 kmh 30.01 in1016.3 mb 0.02 in0.5 mm 0.00 in0.0 mm 0.03 in0.8 mm
12:10 PM 42.6°F5.9°C 40.2°F4.6°C 91% 8.0 mph E12.9 kmh E 13.0 mph20.9 kmh 30.01 in1016.3 mb 0.02 in0.5 mm 0.00 in0.0 mm 0.03 in0.8 mm
12:05 PM 42.7°F5.9°C 40.3°F4.6°C 91% 9.0 mph N14.5 kmh N 11.0 mph17.7 kmh 30.01 in1016.3 mb 0.02 in0.5 mm 0.00 in0.0 mm 0.03 in0.8 mm
12:00 PM 42.9°F6.1°C 40.5°F4.7°C 91% 7.0 mph NNE11.3 kmh NNE 11.0 mph17.7 kmh 30.01 in1016.3 mb 0.02 in0.5 mm 0.01 in0.3 mm 0.03 in0.8 mm
11:55 AM 43.1°F6.2°C 40.7°F4.8°C 91% 5.0 mph NNE8.0 kmh NNE 9.0 mph14.5 kmh 30.01 in1016.3 mb 0.01 in0.3 mm 0.00 in0.0 mm 0.02 in0.5 mm
11:50 AM 43.2°F6.2°C 40.8°F4.9°C 91% 11.0 mph NE17.7 kmh NE 13.0 mph20.9 kmh 30.02 in1016.6 mb 0.01 in0.3 mm 0.00 in0.0 mm 0.02 in0.5 mm
11:44 AM 43.4°F6.3°C 41.0°F5.0°C 91% 9.0 mph NE14.5 kmh NE 11.0 mph17.7 kmh 30.02 in1016.6 mb 0.01 in0.3 mm 0.00 in0.0 mm 0.02 in0.5 mm
11:40 AM 43.5°F6.4°C 41.1°F5.1°C 91% 9.0 mph NNE14.5 kmh NNE 12.0 mph19.3 kmh 30.03 in1016.9 mb 0.01 in0.3 mm 0.00 in0.0 mm 0.02 in0.5 mm
11:35 AM 43.6°F6.4°C 41.2°F5.1°C 91% 3.0 mph NE4.8 kmh NE 10.0 mph16.1 kmh 30.03 in1016.9 mb 0.01 in0.3 mm 0.00 in0.0 mm 0.02 in0.5 mm
11:30 AM 43.7°F6.5°C 41.3°F5.2°C 91% 4.0 mph NE6.4 kmh NE 10.0 mph16.1 kmh 30.04 in1017.3 mb 0.01 in0.3 mm 0.00 in0.0 mm 0.02 in0.5 mm
11:25 AM 43.7°F6.5°C 41.3°F5.2°C 91% 8.0 mph NNE12.9 kmh NNE 13.0 mph20.9 kmh 30.04 in1017.3 mb 0.01 in0.3 mm 0.00 in0.0 mm 0.02 in0.5 mm
11:20 AM 43.8°F6.6°C 41.4°F5.2°C 91% 4.0 mph NE6.4 kmh NE 10.0 mph16.1 kmh 30.03 in1016.9 mb 0.01 in0.3 mm 0.00 in0.0 mm 0.02 in0.5 mm
11:14 AM 43.9°F6.6°C 41.7°F5.4°C 92% 3.0 mph ENE4.8 kmh ENE 8.0 mph12.9 kmh 30.03 in1016.9 mb 0.01 in0.3 mm 0.00 in0.0 mm 0.02 in0.5 mm
11:10 AM 43.9°F6.6°C 41.7°F5.4°C 92% 2.0 mph NE3.2 kmh NE 11.0 mph17.7 kmh 30.03 in1016.9 mb 0.01 in0.3 mm 0.00 in0.0 mm 0.02 in0.5 mm
11:05 AM 44.0°F6.7°C 41.8°F5.4°C 92% 7.0 mph NE11.3 kmh NE 9.0 mph14.5 kmh 30.04 in1017.3 mb 0.01 in0.3 mm 0.00 in0.0 mm 0.02 in0.5 mm
11:00 AM 44.0°F6.7°C 41.8°F5.4°C 92% 6.0 mph N9.7 kmh N 10.0 mph16.1 kmh 30.04 in1017.3 mb 0.01 in0.3 mm 0.00 in0.0 mm 0.02 in0.5 mm
10:54 AM 44.1°F6.7°C 41.9°F5.5°C 92% 6.0 mph NNE9.7 kmh NNE 11.0 mph17.7 kmh 30.04 in1017.3 mb 0.01 in0.3 mm 0.00 in0.0 mm 0.02 in0.5 mm
10:50 AM 44.1°F6.7°C 41.7°F5.4°C 91% 5.0 mph NNE8.0 kmh NNE 7.0 mph11.3 kmh 30.04 in1017.3 mb 0.01 in0.3 mm 0.00 in0.0 mm 0.02 in0.5 mm
10:45 AM 44.1°F6.7°C 41.7°F5.4°C 91% 5.0 mph NE8.0 kmh NE 12.0 mph19.3 kmh 30.04 in1017.3 mb 0.01 in0.3 mm 0.00 in0.0 mm 0.02 in0.5 mm
10:40 AM 44.2°F6.8°C 41.7°F5.4°C 91% 3.0 mph N4.8 kmh N 10.0 mph16.1 kmh 30.04 in1017.3 mb 0.01 in0.3 mm 0.00 in0.0 mm 0.02 in0.5 mm
10:34 AM 44.2°F6.8°C 41.7°F5.4°C 91% 5.0 mph NNE8.0 kmh NNE 11.0 mph17.7 kmh 30.04 in1017.3 mb 0.01 in0.3 mm 0.00 in0.0 mm 0.02 in0.5 mm
10:29 AM 44.3°F6.8°C 41.8°F5.4°C 91% 11.0 mph NE17.7 kmh NE 11.0 mph17.7 kmh 30.04 in1017.3 mb 0.01 in0.3 mm 0.00 in0.0 mm 0.02 in0.5 mm
10:25 AM 44.4°F6.9°C 41.9°F5.5°C 91% 4.0 mph NE6.4 kmh NE 9.0 mph14.5 kmh 30.05 in1017.6 mb 0.01 in0.3 mm 0.00 in0.0 mm 0.02 in0.5 mm
10:20 AM 44.5°F6.9°C 42.0°F5.6°C 91% 10.0 mph NW16.1 kmh NW 10.0 mph16.1 kmh 30.05 in1017.6 mb 0.01 in0.3 mm 0.00 in0.0 mm 0.02 in0.5 mm
10:15 AM 44.6°F7.0°C 41.9°F5.5°C 90% 5.0 mph NE8.0 kmh NE 10.0 mph16.1 kmh 30.05 in1017.6 mb 0.01 in0.3 mm 0.12 in3.0 mm 0.02 in0.5 mm
10:10 AM 44.7°F7.1°C 42.0°F5.6°C 90% 8.0 mph ENE12.9 kmh ENE 11.0 mph17.7 kmh 30.05 in1017.6 mb 0.00 in0.0 mm 0.00 in0.0 mm 0.01 in0.3 mm
10:05 AM 44.8°F7.1°C 42.1°F5.6°C 90% 5.0 mph ENE8.0 kmh ENE 11.0 mph17.7 kmh 30.04 in1017.3 mb 0.00 in0.0 mm 0.00 in0.0 mm 0.01 in0.3 mm
10:00 AM 44.9°F7.2°C 42.2°F5.7°C 90% 1.0 mph N1.6 kmh N 5.0 mph8.0 kmh 30.04 in1017.3 mb 0.00 in0.0 mm 0.00 in0.0 mm 0.01 in0.3 mm
09:54 AM 44.9°F7.2°C 42.2°F5.7°C 90% 9.0 mph NNE14.5 kmh NNE 12.0 mph19.3 kmh 30.04 in1017.3 mb 0.00 in0.0 mm 0.00 in0.0 mm 0.01 in0.3 mm
09:49 AM 44.9°F7.2°C 42.2°F5.7°C 90% 1.0 mph E1.6 kmh E 11.0 mph17.7 kmh 30.04 in1017.3 mb 0.00 in0.0 mm 0.00 in0.0 mm 0.01 in0.3 mm
09:44 AM 45.0°F7.2°C 42.3°F5.7°C 90% 3.0 mph NNE4.8 kmh NNE 11.0 mph17.7 kmh 30.04 in1017.3 mb 0.00 in0.0 mm 0.00 in0.0 mm 0.01 in0.3 mm
09:40 AM 45.0°F7.2°C 42.3°F5.7°C 90% 5.0 mph N8.0 kmh N 11.0 mph17.7 kmh 30.03 in1016.9 mb 0.00 in0.0 mm 0.00 in0.0 mm 0.01 in0.3 mm
09:35 AM 45.1°F7.3°C 42.1°F5.6°C 89% 5.0 mph N8.0 kmh N 16.0 mph25.7 kmh 30.03 in1016.9 mb 0.00 in0.0 mm 0.00 in0.0 mm 0.01 in0.3 mm
09:30 AM 45.0°F7.2°C 42.0°F5.6°C 89% 2.0 mph N3.2 kmh N 10.0 mph16.1 kmh 30.03 in1016.9 mb 0.00 in0.0 mm 0.00 in0.0 mm 0.01 in0.3 mm
09:24 AM 45.0°F7.2°C 42.0°F5.6°C 89% 5.0 mph NNE8.0 kmh NNE 9.0 mph14.5 kmh 30.03 in1016.9 mb 0.00 in0.0 mm 0.00 in0.0 mm 0.01 in0.3 mm
09:20 AM 44.9°F7.2°C 41.9°F5.5°C 89% 14.0 mph NNE22.5 kmh NNE 14.0 mph22.5 kmh 30.03 in1016.9 mb 0.00 in0.0 mm 0.00 in0.0 mm 0.01 in0.3 mm
09:15 AM 44.8°F7.1°C 41.8°F5.4°C 89% 9.0 mph NNE14.5 kmh NNE 11.0 mph17.7 kmh 30.02 in1016.6 mb 0.00 in0.0 mm 0.00 in0.0 mm 0.01 in0.3 mm
09:10 AM 44.7°F7.1°C 41.7°F5.4°C 89% 11.0 mph NE17.7 kmh NE 11.0 mph17.7 kmh 30.02 in1016.6 mb 0.00 in0.0 mm 0.00 in0.0 mm 0.01 in0.3 mm
09:04 AM 44.7°F7.1°C 41.7°F5.4°C 89% 5.0 mph N8.0 kmh N 11.0 mph17.7 kmh 30.02 in1016.6 mb 0.00 in0.0 mm 0.00 in0.0 mm 0.01 in0.3 mm
08:59 AM 44.6°F7.0°C 41.6°F5.3°C 89% 5.0 mph NNW8.0 kmh NNW 8.0 mph12.9 kmh 30.02 in1016.6 mb 0.00 in0.0 mm 0.00 in0.0 mm 0.01 in0.3 mm
08:55 AM 44.5°F6.9°C 41.5°F5.3°C 89% 2.0 mph NNE3.2 kmh NNE 9.0 mph14.5 kmh 30.02 in1016.6 mb 0.00 in0.0 mm 0.00 in0.0 mm 0.01 in0.3 mm
08:49 AM 44.5°F6.9°C 41.5°F5.3°C 89% 2.0 mph ENE3.2 kmh ENE 5.0 mph8.0 kmh 30.02 in1016.6 mb 0.00 in0.0 mm 0.00 in0.0 mm 0.01 in0.3 mm
08:45 AM 44.5°F6.9°C 41.5°F5.3°C 89% 3.0 mph NNE4.8 kmh NNE 6.0 mph9.7 kmh 30.02 in1016.6 mb 0.00 in0.0 mm 0.00 in0.0 mm 0.01 in0.3 mm
08:40 AM 44.5°F6.9°C 41.5°F5.3°C 89% 4.0 mph NE6.4 kmh NE 7.0 mph11.3 kmh 30.02 in1016.6 mb 0.00 in0.0 mm 0.00 in0.0 mm 0.01 in0.3 mm
08:35 AM 44.5°F6.9°C 41.2°F5.1°C 88% 3.0 mph NE4.8 kmh NE 8.0 mph12.9 kmh 30.02 in1016.6 mb 0.00 in0.0 mm 0.00 in0.0 mm 0.01 in0.3 mm
08:29 AM 44.4°F6.9°C 41.1°F5.1°C 88% 4.0 mph NE6.4 kmh NE 8.0 mph12.9 kmh 30.02 in1016.6 mb 0.00 in0.0 mm 0.00 in0.0 mm 0.01 in0.3 mm
08:25 AM 44.3°F6.8°C 41.0°F5.0°C 88% 1.0 mph N1.6 kmh N 7.0 mph11.3 kmh 30.02 in1016.6 mb 0.00 in0.0 mm 0.00 in0.0 mm 0.01 in0.3 mm
08:20 AM 44.3°F6.8°C 41.0°F5.0°C 88% 3.0 mph NNE4.8 kmh NNE 4.0 mph6.4 kmh 30.02 in1016.6 mb 0.00 in0.0 mm 0.00 in0.0 mm 0.01 in0.3 mm
08:15 AM 44.3°F6.8°C 41.0°F5.0°C 88% 4.0 mph NNE6.4 kmh NNE 5.0 mph8.0 kmh 30.02 in1016.6 mb 0.00 in0.0 mm 0.00 in0.0 mm 0.01 in0.3 mm
08:10 AM 44.2°F6.8°C 41.2°F5.1°C 89% 5.0 mph N8.0 kmh N 6.0 mph9.7 kmh 30.02 in1016.6 mb 0.00 in0.0 mm 0.00 in0.0 mm 0.01 in0.3 mm
08:05 AM 44.2°F6.8°C 41.2°F5.1°C 89% Calm Calm 5.0 mph8.0 kmh 30.03 in1016.9 mb 0.00 in0.0 mm 0.00 in0.0 mm 0.01 in0.3 mm
08:00 AM 44.1°F6.7°C 41.1°F5.1°C 89% 4.0 mph N6.4 kmh N 8.0 mph12.9 kmh 30.03 in1016.9 mb 0.00 in0.0 mm 0.00 in0.0 mm 0.01 in0.3 mm
07:55 AM 44.1°F6.7°C 41.1°F5.1°C 89% 1.0 mph NNE1.6 kmh NNE 4.0 mph6.4 kmh 30.03 in1016.9 mb 0.00 in0.0 mm 0.00 in0.0 mm 0.01 in0.3 mm
07:50 AM 44.1°F6.7°C 41.1°F5.1°C 89% 2.0 mph NE3.2 kmh NE 8.0 mph12.9 kmh 30.03 in1016.9 mb 0.00 in0.0 mm 0.00 in0.0 mm 0.01 in0.3 mm
07:45 AM 44.0°F6.7°C 41.0°F5.0°C 89% 5.0 mph N8.0 kmh N 8.0 mph12.9 kmh 30.02 in1016.6 mb 0.00 in0.0 mm 0.00 in0.0 mm 0.01 in0.3 mm
07:40 AM 44.0°F6.7°C 41.0°F5.0°C 89% Calm Calm 9.0 mph14.5 kmh 30.02 in1016.6 mb 0.00 in0.0 mm 0.00 in0.0 mm 0.01 in0.3 mm
07:35 AM 43.9°F6.6°C 40.9°F4.9°C 89% 2.0 mph NE3.2 kmh NE 8.0 mph12.9 kmh 30.02 in1016.6 mb 0.00 in0.0 mm 0.00 in0.0 mm 0.01 in0.3 mm
07:30 AM 43.9°F6.6°C 40.9°F4.9°C 89% 3.0 mph N4.8 kmh N 9.0 mph14.5 kmh 30.01 in1016.3 mb 0.00 in0.0 mm 0.00 in0.0 mm 0.01 in0.3 mm
07:25 AM 43.9°F6.6°C 40.9°F4.9°C 89% 3.0 mph N4.8 kmh N 9.0 mph14.5 kmh 30.02 in1016.6 mb 0.00 in0.0 mm 0.00 in0.0 mm 0.01 in0.3 mm
07:20 AM 43.9°F6.6°C 40.9°F4.9°C 89% 5.0 mph NNE8.0 kmh NNE 8.0 mph12.9 kmh 30.02 in1016.6 mb 0.00 in0.0 mm 0.00 in0.0 mm 0.01 in0.3 mm
07:15 AM 43.9°F6.6°C 40.9°F4.9°C 89% 4.0 mph NE6.4 kmh NE 8.0 mph12.9 kmh 30.02 in1016.6 mb 0.00 in0.0 mm 0.00 in0.0 mm 0.01 in0.3 mm
07:10 AM 44.0°F6.7°C 41.0°F5.0°C 89% 4.0 mph NE6.4 kmh NE 8.0 mph12.9 kmh 30.01 in1016.3 mb 0.00 in0.0 mm 0.00 in0.0 mm 0.01 in0.3 mm
07:05 AM 44.0°F6.7°C 41.0°F5.0°C 89% 3.0 mph NE4.8 kmh NE 11.0 mph17.7 kmh 30.01 in1016.3 mb 0.00 in0.0 mm 0.00 in0.0 mm 0.01 in0.3 mm
07:00 AM 44.0°F6.7°C 41.0°F5.0°C 89% 3.0 mph NE4.8 kmh NE 8.0 mph12.9 kmh 30.01 in1016.3 mb 0.00 in0.0 mm 0.00 in0.0 mm 0.01 in0.3 mm
06:55 AM 44.1°F6.7°C 41.1°F5.1°C 89% 5.0 mph NNE8.0 kmh NNE 11.0 mph17.7 kmh 30.01 in1016.3 mb 0.00 in0.0 mm 0.00 in0.0 mm 0.01 in0.3 mm
06:50 AM 44.1°F6.7°C 41.1°F5.1°C 89% 9.0 mph NE14.5 kmh NE 15.0 mph24.1 kmh 30.01 in1016.3 mb 0.00 in0.0 mm 0.00 in0.0 mm 0.01 in0.3 mm
06:45 AM 44.1°F6.7°C 41.1°F5.1°C 89% 4.0 mph NE6.4 kmh NE 9.0 mph14.5 kmh 30.01 in1016.3 mb 0.00 in0.0 mm 0.00 in0.0 mm 0.01 in0.3 mm
06:39 AM 44.2°F6.8°C 41.2°F5.1°C 89% 10.0 mph NNE16.1 kmh NNE 10.0 mph16.1 kmh 30.01 in1016.3 mb 0.00 in0.0 mm 0.00 in0.0 mm 0.01 in0.3 mm
06:35 AM 44.3°F6.8°C 41.3°F5.2°C 89% 3.0 mph N4.8 kmh N 7.0 mph11.3 kmh 30.01 in1016.3 mb 0.00 in0.0 mm 0.00 in0.0 mm 0.01 in0.3 mm
06:30 AM 44.3°F6.8°C 41.3°F5.2°C 89% 1.0 mph NE1.6 kmh NE 8.0 mph12.9 kmh 30.01 in1016.3 mb 0.00 in0.0 mm 0.00 in0.0 mm 0.01 in0.3 mm
06:25 AM 44.4°F6.9°C 41.4°F5.2°C 89% 4.0 mph NNE6.4 kmh NNE 10.0 mph16.1 kmh 30.01 in1016.3 mb 0.00 in0.0 mm 0.00 in0.0 mm 0.01 in0.3 mm
06:20 AM 44.5°F6.9°C 41.5°F5.3°C 89% 1.0 mph NE1.6 kmh NE 6.0 mph9.7 kmh 30.01 in1016.3 mb 0.00 in0.0 mm 0.00 in0.0 mm 0.01 in0.3 mm
06:15 AM 44.6°F7.0°C 41.6°F5.3°C 89% 5.0 mph NNE8.0 kmh NNE 8.0 mph12.9 kmh 30.00 in1015.9 mb 0.00 in0.0 mm 0.00 in0.0 mm 0.01 in0.3 mm
06:10 AM 44.7°F7.1°C 41.7°F5.4°C 89% 3.0 mph NE4.8 kmh NE 5.0 mph8.0 kmh 30.00 in1015.9 mb 0.00 in0.0 mm 0.00 in0.0 mm 0.01 in0.3 mm
06:05 AM 44.8°F7.1°C 41.8°F5.4°C 89% 2.0 mph NNE3.2 kmh NNE 5.0 mph8.0 kmh 30.00 in1015.9 mb 0.00 in0.0 mm 0.00 in0.0 mm 0.01 in0.3 mm
06:00 AM 44.8°F7.1°C 41.5°F5.3°C 88% 3.0 mph E4.8 kmh E 7.0 mph11.3 kmh 30.00 in1015.9 mb 0.00 in0.0 mm 0.00 in0.0 mm 0.01 in0.3 mm
05:55 AM 44.9°F7.2°C 41.6°F5.3°C 88% 3.0 mph ENE4.8 kmh ENE 12.0 mph19.3 kmh 29.99 in1015.6 mb 0.00 in0.0 mm 0.00 in0.0 mm 0.01 in0.3 mm
05:50 AM 45.1°F7.3°C 41.8°F5.4°C 88% 4.0 mph NNE6.4 kmh NNE 5.0 mph8.0 kmh 29.99 in1015.6 mb 0.00 in0.0 mm 0.00 in0.0 mm 0.01 in0.3 mm
05:45 AM 45.1°F7.3°C 41.8°F5.4°C 88% 2.0 mph N3.2 kmh N 9.0 mph14.5 kmh 29.99 in1015.6 mb 0.00 in0.0 mm 0.00 in0.0 mm 0.01 in0.3 mm
05:40 AM 45.2°F7.3°C 41.9°F5.5°C 88% 4.0 mph NNE6.4 kmh NNE 9.0 mph14.5 kmh 29.99 in1015.6 mb 0.00 in0.0 mm 0.00 in0.0 mm 0.01 in0.3 mm
05:34 AM 45.3°F7.4°C 42.0°F5.6°C 88% 3.0 mph NE4.8 kmh NE 12.0 mph19.3 kmh 30.00 in1015.9 mb 0.00 in0.0 mm 0.00 in0.0 mm 0.01 in0.3 mm
05:30 AM 45.4°F7.4°C 42.1°F5.6°C 88% 3.0 mph NE4.8 kmh NE 7.0 mph11.3 kmh 30.00 in1015.9 mb 0.00 in0.0 mm 0.00 in0.0 mm 0.01 in0.3 mm
05:24 AM 45.5°F7.5°C 42.2°F5.7°C 88% 2.0 mph NE3.2 kmh NE 11.0 mph17.7 kmh 30.00 in1015.9 mb 0.00 in0.0 mm 0.00 in0.0 mm 0.01 in0.3 mm
05:20 AM 45.5°F7.5°C 42.2°F5.7°C 88% 7.0 mph N11.3 kmh N 15.0 mph24.1 kmh 30.00 in1015.9 mb 0.00 in0.0 mm 0.00 in0.0 mm 0.01 in0.3 mm
05:14 AM 45.5°F7.5°C 42.2°F5.7°C 88% 9.0 mph NE14.5 kmh NE 12.0 mph19.3 kmh 30.00 in1015.9 mb 0.00 in0.0 mm 0.00 in0.0 mm 0.01 in0.3 mm
05:10 AM 45.6°F7.6°C 42.3°F5.7°C 88% 4.0 mph NE6.4 kmh NE 9.0 mph14.5 kmh 30.00 in1015.9 mb 0.00 in0.0 mm 0.00 in0.0 mm 0.01 in0.3 mm
05:04 AM 45.6°F7.6°C 42.3°F5.7°C 88% 7.0 mph NE11.3 kmh NE 11.0 mph17.7 kmh 29.99 in1015.6 mb 0.00 in0.0 mm 0.00 in0.0 mm 0.01 in0.3 mm
05:00 AM 45.6°F7.6°C 42.3°F5.7°C 88% 9.0 mph NNE14.5 kmh NNE 10.0 mph16.1 kmh 29.99 in1015.6 mb 0.00 in0.0 mm 0.00 in0.0 mm 0.01 in0.3 mm
04:54 AM 45.6°F7.6°C 42.3°F5.7°C 88% 10.0 mph NE16.1 kmh NE 12.0 mph19.3 kmh 29.99 in1015.6 mb 0.00 in0.0 mm 0.00 in0.0 mm 0.01 in0.3 mm
04:50 AM 45.7°F7.6°C 42.4°F5.8°C 88% 7.0 mph NE11.3 kmh NE 10.0 mph16.1 kmh 30.00 in1015.9 mb 0.00 in0.0 mm 0.00 in0.0 mm 0.01 in0.3 mm
04:44 AM 45.8°F7.7°C 42.5°F5.8°C 88% 1.0 mph NE1.6 kmh NE 7.0 mph11.3 kmh 30.00 in1015.9 mb 0.00 in0.0 mm 0.00 in0.0 mm 0.01 in0.3 mm
04:40 AM 45.8°F7.7°C 42.5°F5.8°C 88% 3.0 mph ENE4.8 kmh ENE 10.0 mph16.1 kmh 30.00 in1015.9 mb 0.00 in0.0 mm 0.00 in0.0 mm 0.01 in0.3 mm
04:35 AM 45.8°F7.7°C 42.5°F5.8°C 88% 7.0 mph NNE11.3 kmh NNE 10.0 mph16.1 kmh 30.01 in1016.3 mb 0.00 in0.0 mm 0.00 in0.0 mm 0.01 in0.3 mm
04:29 AM 45.8°F7.7°C 42.5°F5.8°C 88% 10.0 mph NE16.1 kmh NE 13.0 mph20.9 kmh 30.01 in1016.3 mb 0.00 in0.0 mm 0.00 in0.0 mm 0.01 in0.3 mm
04:25 AM 45.8°F7.7°C 42.5°F5.8°C 88% 7.0 mph N11.3 kmh N 7.0 mph11.3 kmh 30.01 in1016.3 mb 0.00 in0.0 mm 0.00 in0.0 mm 0.01 in0.3 mm
04:20 AM 45.8°F7.7°C 42.8°F6.0°C 89% 4.0 mph NNE6.4 kmh NNE 10.0 mph16.1 kmh 30.01 in1016.3 mb 0.00 in0.0 mm 0.00 in0.0 mm 0.01 in0.3 mm
04:15 AM 45.8°F7.7°C 42.8°F6.0°C 89% 2.0 mph NNE3.2 kmh NNE 13.0 mph20.9 kmh 30.01 in1016.3 mb 0.00 in0.0 mm 0.00 in0.0 mm 0.01 in0.3 mm
04:10 AM 45.7°F7.6°C 42.7°F5.9°C 89% 4.0 mph NNE6.4 kmh NNE 10.0 mph16.1 kmh 30.01 in1016.3 mb 0.00 in0.0 mm 0.00 in0.0 mm 0.01 in0.3 mm
04:05 AM 45.7°F7.6°C 42.7°F5.9°C 89% 7.0 mph NE11.3 kmh NE 11.0 mph17.7 kmh 30.01 in1016.3 mb 0.00 in0.0 mm 0.00 in0.0 mm 0.01 in0.3 mm
04:00 AM 45.6°F7.6°C 42.6°F5.9°C 89% 4.0 mph NE6.4 kmh NE 11.0 mph17.7 kmh 30.01 in1016.3 mb 0.00 in0.0 mm 0.00 in0.0 mm 0.01 in0.3 mm
03:55 AM 45.6°F7.6°C 42.8°F6.0°C 90% 4.0 mph N6.4 kmh N 8.0 mph12.9 kmh 30.02 in1016.6 mb 0.00 in0.0 mm 0.00 in0.0 mm 0.01 in0.3 mm
03:50 AM 45.5°F7.5°C 42.7°F5.9°C 90% 10.0 mph NE16.1 kmh NE 10.0 mph16.1 kmh 30.02 in1016.6 mb 0.00 in0.0 mm 0.00 in0.0 mm 0.01 in0.3 mm
03:45 AM 45.5°F7.5°C 42.7°F5.9°C 90% 3.0 mph NE4.8 kmh NE 8.0 mph12.9 kmh 30.03 in1016.9 mb 0.00 in0.0 mm 0.00 in0.0 mm 0.01 in0.3 mm
03:40 AM 45.5°F7.5°C 42.7°F5.9°C 90% 8.0 mph NE12.9 kmh NE 11.0 mph17.7 kmh 30.03 in1016.9 mb 0.00 in0.0 mm 0.00 in0.0 mm 0.01 in0.3 mm
03:35 AM 45.5°F7.5°C 42.7°F5.9°C 90% 5.0 mph NE8.0 kmh NE 15.0 mph24.1 kmh 30.03 in1016.9 mb 0.00 in0.0 mm 0.00 in0.0 mm 0.01 in0.3 mm
03:29 AM 45.4°F7.4°C 42.6°F5.9°C 90% 8.0 mph NNE12.9 kmh NNE 9.0 mph14.5 kmh 30.04 in1017.3 mb 0.00 in0.0 mm 0.00 in0.0 mm 0.01 in0.3 mm
03:25 AM 45.4°F7.4°C 42.6°F5.9°C 90% 5.0 mph N8.0 kmh N 12.0 mph19.3 kmh 30.04 in1017.3 mb 0.00 in0.0 mm 0.00 in0.0 mm 0.01 in0.3 mm
03:19 AM 45.4°F7.4°C 42.6°F5.9°C 90% 4.0 mph NE6.4 kmh NE 11.0 mph17.7 kmh 30.04 in1017.3 mb 0.01 in0.3 mm 0.00 in0.0 mm 0.01 in0.3 mm
03:15 AM 45.4°F7.4°C 42.6°F5.9°C 90% 6.0 mph NE9.7 kmh NE 10.0 mph16.1 kmh 30.04 in1017.3 mb 0.01 in0.3 mm 0.00 in0.0 mm 0.01 in0.3 mm
03:09 AM 45.3°F7.4°C 42.8°F6.0°C 91% 4.0 mph NNE6.4 kmh NNE 6.0 mph9.7 kmh 30.04 in1017.3 mb 0.01 in0.3 mm 0.00 in0.0 mm 0.01 in0.3 mm
03:05 AM 45.3°F7.4°C 42.6°F5.9°C 90% 3.0 mph NE4.8 kmh NE 11.0 mph17.7 kmh 30.05 in1017.6 mb 0.01 in0.3 mm 0.00 in0.0 mm 0.01 in0.3 mm
03:00 AM 45.2°F7.3°C 42.5°F5.8°C 90% 3.0 mph NNE4.8 kmh NNE 8.0 mph12.9 kmh 30.04 in1017.3 mb 0.01 in0.3 mm 0.00 in0.0 mm 0.01 in0.3 mm
02:55 AM 45.2°F7.3°C 42.7°F5.9°C 91% 3.0 mph NE4.8 kmh NE 10.0 mph16.1 kmh 30.05 in1017.6 mb 0.01 in0.3 mm 0.00 in0.0 mm 0.01 in0.3 mm
02:50 AM 45.2°F7.3°C 42.7°F5.9°C 91% Calm Calm 9.0 mph14.5 kmh 30.05 in1017.6 mb 0.01 in0.3 mm 0.00 in0.0 mm 0.01 in0.3 mm
02:45 AM 45.2°F7.3°C 42.7°F5.9°C 91% 3.0 mph NE4.8 kmh NE 13.0 mph20.9 kmh 30.05 in1017.6 mb 0.01 in0.3 mm 0.00 in0.0 mm 0.01 in0.3 mm
02:40 AM 45.3°F7.4°C 42.8°F6.0°C 91% 6.0 mph N9.7 kmh N 8.0 mph12.9 kmh 30.05 in1017.6 mb 0.01 in0.3 mm 0.00 in0.0 mm 0.01 in0.3 mm
02:35 AM 45.3°F7.4°C 42.8°F6.0°C 91% 2.0 mph NNE3.2 kmh NNE 9.0 mph14.5 kmh 30.05 in1017.6 mb 0.01 in0.3 mm 0.00 in0.0 mm 0.01 in0.3 mm
02:30 AM 45.3°F7.4°C 42.8°F6.0°C 91% 4.0 mph NE6.4 kmh NE 7.0 mph11.3 kmh 30.05 in1017.6 mb 0.01 in0.3 mm 0.00 in0.0 mm 0.01 in0.3 mm
02:24 AM 45.3°F7.4°C 42.8°F6.0°C 91% 10.0 mph NNE16.1 kmh NNE 10.0 mph16.1 kmh 30.05 in1017.6 mb 0.01 in0.3 mm 0.00 in0.0 mm 0.01 in0.3 mm
02:20 AM 45.3°F7.4°C 42.8°F6.0°C 91% 6.0 mph NE9.7 kmh NE 13.0 mph20.9 kmh 30.05 in1017.6 mb 0.01 in0.3 mm 0.12 in3.0 mm 0.01 in0.3 mm
02:15 AM 45.3°F7.4°C 42.8°F6.0°C 91% 3.0 mph E4.8 kmh E 11.0 mph17.7 kmh 30.05 in1017.6 mb 0.00 in0.0 mm 0.00 in0.0 mm 0.00 in0.0 mm
02:10 AM 45.4°F7.4°C 42.9°F6.1°C 91% 4.0 mph NE6.4 kmh NE 10.0 mph16.1 kmh 30.05 in1017.6 mb 0.00 in0.0 mm 0.00 in0.0 mm 0.00 in0.0 mm
02:05 AM 45.4°F7.4°C 42.9°F6.1°C 91% 3.0 mph E4.8 kmh E 11.0 mph17.7 kmh 30.05 in1017.6 mb 0.00 in0.0 mm 0.00 in0.0 mm 0.00 in0.0 mm
02:00 AM 45.4°F7.4°C 42.9°F6.1°C 91% 3.0 mph NE4.8 kmh NE 10.0 mph16.1 kmh 30.06 in1017.9 mb 0.00 in0.0 mm 0.00 in0.0 mm 0.00 in0.0 mm
01:55 AM 45.6°F7.6°C 43.1°F6.2°C 91% 9.0 mph NE14.5 kmh NE 9.0 mph14.5 kmh 30.06 in1017.9 mb 0.00 in0.0 mm 0.00 in0.0 mm 0.00 in0.0 mm
01:50 AM 45.6°F7.6°C 42.8°F6.0°C 90% 4.0 mph ENE6.4 kmh ENE 4.0 mph6.4 kmh 30.07 in1018.3 mb 0.00 in0.0 mm 0.00 in0.0 mm 0.00 in0.0 mm
01:45 AM 45.6°F7.6°C 42.8°F6.0°C 90% 1.0 mph E1.6 kmh E 3.0 mph4.8 kmh 30.07 in1018.3 mb 0.00 in0.0 mm 0.00 in0.0 mm 0.00 in0.0 mm
01:40 AM 45.7°F7.6°C 42.9°F6.1°C 90% Calm Calm 4.0 mph6.4 kmh 30.07 in1018.3 mb 0.00 in0.0 mm 0.00 in0.0 mm 0.00 in0.0 mm
01:34 AM 45.7°F7.6°C 42.9°F6.1°C 90% 2.0 mph ESE3.2 kmh ESE 4.0 mph6.4 kmh 30.07 in1018.3 mb 0.00 in0.0 mm 0.00 in0.0 mm 0.00 in0.0 mm
01:30 AM 45.7°F7.6°C 42.9°F6.1°C 90% 3.0 mph ENE4.8 kmh ENE 5.0 mph8.0 kmh 30.07 in1018.3 mb 0.00 in0.0 mm 0.00 in0.0 mm 0.00 in0.0 mm
01:25 AM 45.8°F7.7°C 43.0°F6.1°C 90% 1.0 mph NE1.6 kmh NE 8.0 mph12.9 kmh 30.07 in1018.3 mb 0.00 in0.0 mm 0.00 in0.0 mm 0.00 in0.0 mm
01:20 AM 45.8°F7.7°C 43.0°F6.1°C 90% 1.0 mph NE1.6 kmh NE 8.0 mph12.9 kmh 30.07 in1018.3 mb 0.00 in0.0 mm 0.00 in0.0 mm 0.00 in0.0 mm
01:14 AM 45.8°F7.7°C 43.0°F6.1°C 90% 3.0 mph NE4.8 kmh NE 5.0 mph8.0 kmh 30.07 in1018.3 mb 0.00 in0.0 mm 0.00 in0.0 mm 0.00 in0.0 mm
01:10 AM 45.8°F7.7°C 43.0°F6.1°C 90% 2.0 mph E3.2 kmh E 10.0 mph16.1 kmh 30.08 in1018.6 mb 0.00 in0.0 mm 0.00 in0.0 mm 0.00 in0.0 mm
01:05 AM 45.8°F7.7°C 43.0°F6.1°C 90% 6.0 mph NE9.7 kmh NE 7.0 mph11.3 kmh 30.08 in1018.6 mb 0.00 in0.0 mm 0.00 in0.0 mm 0.00 in0.0 mm
01:00 AM 45.7°F7.6°C 42.9°F6.1°C 90% 4.0 mph NE6.4 kmh NE 5.0 mph8.0 kmh 30.09 in1019.0 mb 0.00 in0.0 mm 0.00 in0.0 mm 0.00 in0.0 mm
12:55 AM 45.7°F7.6°C 43.2°F6.2°C 91% 2.0 mph E3.2 kmh E 3.0 mph4.8 kmh 30.09 in1019.0 mb 0.00 in0.0 mm 0.00 in0.0 mm 0.00 in0.0 mm
12:50 AM 45.7°F7.6°C 43.2°F6.2°C 91% Calm Calm 4.0 mph6.4 kmh 30.08 in1018.6 mb 0.00 in0.0 mm 0.00 in0.0 mm 0.00 in0.0 mm
12:45 AM 45.7°F7.6°C 43.2°F6.2°C 91% 3.0 mph ENE4.8 kmh ENE 6.0 mph9.7 kmh 30.08 in1018.6 mb 0.00 in0.0 mm 0.00 in0.0 mm 0.00 in0.0 mm
12:40 AM 45.6°F7.6°C 43.1°F6.2°C 91% 2.0 mph NE3.2 kmh NE 5.0 mph8.0 kmh 30.07 in1018.3 mb 0.00 in0.0 mm 0.00 in0.0 mm 0.00 in0.0 mm
12:34 AM 45.6°F7.6°C 43.1°F6.2°C 91% 1.0 mph NE1.6 kmh NE 4.0 mph6.4 kmh 30.07 in1018.3 mb 0.00 in0.0 mm 0.00 in0.0 mm 0.00 in0.0 mm
12:30 AM 45.6°F7.6°C 43.1°F6.2°C 91% 2.0 mph NE3.2 kmh NE 9.0 mph14.5 kmh 30.07 in1018.3 mb 0.00 in0.0 mm 0.00 in0.0 mm 0.00 in0.0 mm
12:25 AM 45.6°F7.6°C 43.1°F6.2°C 91% Calm Calm 6.0 mph9.7 kmh 30.06 in1017.9 mb 0.00 in0.0 mm 0.00 in0.0 mm 0.00 in0.0 mm
12:20 AM 45.6°F7.6°C 42.8°F6.0°C 90% 2.0 mph NNE3.2 kmh NNE 10.0 mph16.1 kmh 30.06 in1017.9 mb 0.00 in0.0 mm 0.00 in0.0 mm 0.00 in0.0 mm
12:15 AM 45.7°F7.6°C 42.9°F6.1°C 90% 3.0 mph NNE4.8 kmh NNE 11.0 mph17.7 kmh 30.06 in1017.9 mb 0.00 in0.0 mm 0.00 in0.0 mm 0.00 in0.0 mm
12:10 AM 45.8°F7.7°C 43.0°F6.1°C 90% 5.0 mph N8.0 kmh N 8.0 mph12.9 kmh 30.07 in1018.3 mb 0.00 in0.0 mm 0.00 in0.0 mm 0.00 in0.0 mm
12:05 AM 45.8°F7.7°C 43.0°F6.1°C 90% 5.0 mph N8.0 kmh N 9.0 mph14.5 kmh 30.07 in1018.3 mb 0.00 in0.0 mm 0.00 in0.0 mm 0.00 in0.0 mm
12:00 AM 45.9°F7.7°C 43.1°F6.2°C 90% 3.0 mph NNE4.8 kmh NNE 10.0 mph16.1 kmh 30.07 in1018.3 mb 0.00 in0.0 mm 0.00 in0.0 mm 0.00 in0.0 mm